sensor_id;sensor_type;location;lat;lon;timestamp;P1;durP1;ratioP1;P2;durP2;ratioP2
82805;SDS011;72558;51.000;-3.112;2024-01-30T00:00:34;1.1;;;0.4;;
82805;SDS011;72558;51.000;-3.112;2024-01-30T00:03:34;1.4;;;0.5;;
82805;SDS011;72558;51.000;-3.112;2024-01-30T00:06:34;2.1;;;0.6;;
82805;SDS011;72558;51.000;-3.112;2024-01-30T00:09:34;2.2;;;0.7;;
82805;SDS011;72558;51.000;-3.112;2024-01-30T00:12:33;2.0;;;0.4;;
82805;SDS011;72558;51.000;-3.112;2024-01-30T00:15:34;1.4;;;0.6;;
82805;SDS011;72558;51.000;-3.112;2024-01-30T00:18:33;1.7;;;0.4;;
82805;SDS011;72558;51.000;-3.112;2024-01-30T00:21:34;1.4;;;0.5;;
82805;SDS011;72558;51.000;-3.112;2024-01-30T00:24:34;1.6;;;0.4;;
82805;SDS011;72558;51.000;-3.112;2024-01-30T00:27:34;0.6;;;0.3;;
82805;SDS011;72558;51.000;-3.112;2024-01-30T00:30:34;0.6;;;0.2;;
82805;SDS011;72558;51.000;-3.112;2024-01-30T00:33:34;1.1;;;0.4;;
82805;SDS011;72558;51.000;-3.112;2024-01-30T00:36:34;1.4;;;0.3;;
82805;SDS011;72558;51.000;-3.112;2024-01-30T00:39:33;1.6;;;0.4;;
82805;SDS011;72558;51.000;-3.112;2024-01-30T00:42:34;1.0;;;0.1;;
82805;SDS011;72558;51.000;-3.112;2024-01-30T00:45:34;0.7;;;0.2;;
82805;SDS011;72558;51.000;-3.112;2024-01-30T00:48:34;0.6;;;0.3;;
82805;SDS011;72558;51.000;-3.112;2024-01-30T00:51:34;0.5;;;0.1;;
82805;SDS011;72558;51.000;-3.112;2024-01-30T00:54:34;0.9;;;0.1;;
82805;SDS011;72558;51.000;-3.112;2024-01-30T00:57:33;1.9;;;0.3;;
82805;SDS011;72558;51.000;-3.112;2024-01-30T01:00:34;0.5;;;0.1;;
82805;SDS011;72558;51.000;-3.112;2024-01-30T01:03:34;1.3;;;0.2;;
82805;SDS011;72558;51.000;-3.112;2024-01-30T01:06:34;0.6;;;0.2;;
82805;SDS011;72558;51.000;-3.112;2024-01-30T01:09:34;1.1;;;0.2;;
82805;SDS011;72558;51.000;-3.112;2024-01-30T01:12:33;1.3;;;0.2;;
82805;SDS011;72558;51.000;-3.112;2024-01-30T01:15:34;1.7;;;0.2;;
82805;SDS011;72558;51.000;-3.112;2024-01-30T01:18:34;2.7;;;0.3;;
82805;SDS011;72558;51.000;-3.112;2024-01-30T01:21:33;3.7;;;0.6;;
82805;SDS011;72558;51.000;-3.112;2024-01-30T01:24:34;2.6;;;0.3;;
82805;SDS011;72558;51.000;-3.112;2024-01-30T01:27:33;2.2;;;0.4;;
82805;SDS011;72558;51.000;-3.112;2024-01-30T01:30:34;3.3;;;0.3;;
82805;SDS011;72558;51.000;-3.112;2024-01-30T01:33:34;4.6;;;0.5;;
82805;SDS011;72558;51.000;-3.112;2024-01-30T01:36:33;4.6;;;0.5;;
82805;SDS011;72558;51.000;-3.112;2024-01-30T01:39:34;4.1;;;0.6;;
82805;SDS011;72558;51.000;-3.112;2024-01-30T01:42:33;4.1;;;0.4;;
82805;SDS011;72558;51.000;-3.112;2024-01-30T01:45:34;6.1;;;0.7;;
82805;SDS011;72558;51.000;-3.112;2024-01-30T01:48:34;7.6;;;0.4;;
82805;SDS011;72558;51.000;-3.112;2024-01-30T01:51:34;3.5;;;0.5;;
82805;SDS011;72558;51.000;-3.112;2024-01-30T01:54:34;5.8;;;0.6;;
82805;SDS011;72558;51.000;-3.112;2024-01-30T01:57:34;2.4;;;0.3;;
82805;SDS011;72558;51.000;-3.112;2024-01-30T02:00:34;3.3;;;0.3;;
82805;SDS011;72558;51.000;-3.112;2024-01-30T02:03:33;4.3;;;0.3;;
82805;SDS011;72558;51.000;-3.112;2024-01-30T02:06:34;3.2;;;0.5;;
82805;SDS011;72558;51.000;-3.112;2024-01-30T02:09:34;3.8;;;0.4;;
82805;SDS011;72558;51.000;-3.112;2024-01-30T02:12:33;4.6;;;0.6;;
82805;SDS011;72558;51.000;-3.112;2024-01-30T02:15:34;6.0;;;0.8;;
82805;SDS011;72558;51.000;-3.112;2024-01-30T02:18:33;6.3;;;0.7;;
82805;SDS011;72558;51.000;-3.112;2024-01-30T02:21:33;5.1;;;0.9;;
82805;SDS011;72558;51.000;-3.112;2024-01-30T02:24:34;5.6;;;0.4;;
82805;SDS011;72558;51.000;-3.112;2024-01-30T02:27:34;4.0;;;0.6;;
82805;SDS011;72558;51.000;-3.112;2024-01-30T02:30:34;6.1;;;0.5;;
82805;SDS011;72558;51.000;-3.112;2024-01-30T02:33:34;4.3;;;0.6;;
82805;SDS011;72558;51.000;-3.112;2024-01-30T02:36:34;5.5;;;0.5;;
82805;SDS011;72558;51.000;-3.112;2024-01-30T02:39:33;5.7;;;0.6;;
82805;SDS011;72558;51.000;-3.112;2024-01-30T02:42:34;4.3;;;0.5;;
82805;SDS011;72558;51.000;-3.112;2024-01-30T02:45:34;5.2;;;0.5;;
82805;SDS011;72558;51.000;-3.112;2024-01-30T02:48:34;4.0;;;0.4;;
82805;SDS011;72558;51.000;-3.112;2024-01-30T02:51:33;4.9;;;0.6;;
82805;SDS011;72558;51.000;-3.112;2024-01-30T02:54:34;4.0;;;0.6;;
82805;SDS011;72558;51.000;-3.112;2024-01-30T02:57:34;6.7;;;0.5;;
82805;SDS011;72558;51.000;-3.112;2024-01-30T03:00:34;4.2;;;0.2;;
82805;SDS011;72558;51.000;-3.112;2024-01-30T03:03:34;2.6;;;0.4;;
82805;SDS011;72558;51.000;-3.112;2024-01-30T03:06:33;3.5;;;0.3;;
82805;SDS011;72558;51.000;-3.112;2024-01-30T03:09:34;3.7;;;0.3;;
82805;SDS011;72558;51.000;-3.112;2024-01-30T03:12:34;6.2;;;0.4;;
82805;SDS011;72558;51.000;-3.112;2024-01-30T03:15:33;4.4;;;0.6;;
82805;SDS011;72558;51.000;-3.112;2024-01-30T03:18:33;4.7;;;0.8;;
82805;SDS011;72558;51.000;-3.112;2024-01-30T03:21:34;3.7;;;0.5;;
82805;SDS011;72558;51.000;-3.112;2024-01-30T03:24:33;4.5;;;0.7;;
82805;SDS011;72558;51.000;-3.112;2024-01-30T03:27:34;3.9;;;0.4;;
82805;SDS011;72558;51.000;-3.112;2024-01-30T03:30:34;3.8;;;0.5;;
82805;SDS011;72558;51.000;-3.112;2024-01-30T03:33:34;6.7;;;0.5;;
82805;SDS011;72558;51.000;-3.112;2024-01-30T03:36:33;5.3;;;0.6;;
82805;SDS011;72558;51.000;-3.112;2024-01-30T03:39:34;6.6;;;0.9;;
82805;SDS011;72558;51.000;-3.112;2024-01-30T03:42:34;7.5;;;0.8;;
82805;SDS011;72558;51.000;-3.112;2024-01-30T03:45:36;5.9;;;0.7;;
82805;SDS011;72558;51.000;-3.112;2024-01-30T03:48:34;8.1;;;0.9;;
82805;SDS011;72558;51.000;-3.112;2024-01-30T03:51:34;9.0;;;1.5;;
82805;SDS011;72558;51.000;-3.112;2024-01-30T03:54:34;7.4;;;1.1;;
82805;SDS011;72558;51.000;-3.112;2024-01-30T03:57:34;8.2;;;1.2;;
82805;SDS011;72558;51.000;-3.112;2024-01-30T04:00:34;8.3;;;1.1;;
82805;SDS011;72558;51.000;-3.112;2024-01-30T04:03:34;8.0;;;1.2;;
82805;SDS011;72558;51.000;-3.112;2024-01-30T04:06:34;8.7;;;1.1;;
82805;SDS011;72558;51.000;-3.112;2024-01-30T04:09:34;10.8;;;1.8;;
82805;SDS011;72558;51.000;-3.112;2024-01-30T04:12:33;11.6;;;1.7;;
82805;SDS011;72558;51.000;-3.112;2024-01-30T04:15:34;9.8;;;2.1;;
82805;SDS011;72558;51.000;-3.112;2024-01-30T04:18:34;12.0;;;1.8;;
82805;SDS011;72558;51.000;-3.112;2024-01-30T04:21:33;12.2;;;2.0;;
82805;SDS011;72558;51.000;-3.112;2024-01-30T04:24:34;11.2;;;1.9;;
82805;SDS011;72558;51.000;-3.112;2024-01-30T04:27:34;13.9;;;2.2;;
82805;SDS011;72558;51.000;-3.112;2024-01-30T04:30:33;16.0;;;2.8;;
82805;SDS011;72558;51.000;-3.112;2024-01-30T04:33:34;14.8;;;3.1;;
82805;SDS011;72558;51.000;-3.112;2024-01-30T04:36:33;15.1;;;2.9;;
82805;SDS011;72558;51.000;-3.112;2024-01-30T04:39:34;14.5;;;3.2;;
82805;SDS011;72558;51.000;-3.112;2024-01-30T04:42:34;18.4;;;3.7;;
82805;SDS011;72558;51.000;-3.112;2024-01-30T04:45:34;16.0;;;3.4;;
82805;SDS011;72558;51.000;-3.112;2024-01-30T04:48:33;17.8;;;3.1;;
82805;SDS011;72558;51.000;-3.112;2024-01-30T04:51:34;18.0;;;3.3;;
82805;SDS011;72558;51.000;-3.112;2024-01-30T04:54:34;17.1;;;3.8;;
82805;SDS011;72558;51.000;-3.112;2024-01-30T04:57:33;15.2;;;3.0;;
82805;SDS011;72558;51.000;-3.112;2024-01-30T05:00:34;13.1;;;3.2;;
82805;SDS011;72558;51.000;-3.112;2024-01-30T05:03:34;19.7;;;3.8;;
82805;SDS011;72558;51.000;-3.112;2024-01-30T05:06:34;13.1;;;3.3;;
82805;SDS011;72558;51.000;-3.112;2024-01-30T05:09:34;16.0;;;3.7;;
82805;SDS011;72558;51.000;-3.112;2024-01-30T05:12:34;17.5;;;3.4;;
82805;SDS011;72558;51.000;-3.112;2024-01-30T05:15:34;15.3;;;4.2;;
82805;SDS011;72558;51.000;-3.112;2024-01-30T05:18:34;17.3;;;3.7;;
82805;SDS011;72558;51.000;-3.112;2024-01-30T05:21:34;15.6;;;3.5;;
82805;SDS011;72558;51.000;-3.112;2024-01-30T05:24:34;16.3;;;4.3;;
82805;SDS011;72558;51.000;-3.112;2024-01-30T05:27:34;14.6;;;4.0;;
82805;SDS011;72558;51.000;-3.112;2024-01-30T05:30:34;15.9;;;3.8;;
82805;SDS011;72558;51.000;-3.112;2024-01-30T05:33:33;11.3;;;3.3;;
82805;SDS011;72558;51.000;-3.112;2024-01-30T05:36:34;13.2;;;3.3;;
82805;SDS011;72558;51.000;-3.112;2024-01-30T05:39:34;14.0;;;3.2;;
82805;SDS011;72558;51.000;-3.112;2024-01-30T05:42:34;11.7;;;3.1;;
82805;SDS011;72558;51.000;-3.112;2024-01-30T05:45:33;14.4;;;3.5;;
82805;SDS011;72558;51.000;-3.112;2024-01-30T05:48:34;14.9;;;3.5;;
82805;SDS011;72558;51.000;-3.112;2024-01-30T05:51:34;14.0;;;3.6;;
82805;SDS011;72558;51.000;-3.112;2024-01-30T05:54:34;16.5;;;3.9;;
82805;SDS011;72558;51.000;-3.112;2024-01-30T05:57:33;16.5;;;3.6;;
82805;SDS011;72558;51.000;-3.112;2024-01-30T06:00:34;13.4;;;3.3;;
82805;SDS011;72558;51.000;-3.112;2024-01-30T06:03:34;15.8;;;3.4;;
82805;SDS011;72558;51.000;-3.112;2024-01-30T06:06:33;13.0;;;3.8;;
82805;SDS011;72558;51.000;-3.112;2024-01-30T06:09:34;16.3;;;3.0;;
82805;SDS011;72558;51.000;-3.112;2024-01-30T06:12:34;14.5;;;3.1;;
82805;SDS011;72558;51.000;-3.112;2024-01-30T06:15:33;14.4;;;3.2;;
82805;SDS011;72558;51.000;-3.112;2024-01-30T06:18:33;16.5;;;3.7;;
82805;SDS011;72558;51.000;-3.112;2024-01-30T06:21:34;17.4;;;3.6;;
82805;SDS011;72558;51.000;-3.112;2024-01-30T06:24:34;18.4;;;3.3;;
82805;SDS011;72558;51.000;-3.112;2024-01-30T06:27:34;15.3;;;3.5;;
82805;SDS011;72558;51.000;-3.112;2024-01-30T06:30:34;16.0;;;2.8;;
82805;SDS011;72558;51.000;-3.112;2024-01-30T06:33:33;16.8;;;3.1;;
82805;SDS011;72558;51.000;-3.112;2024-01-30T06:36:35;16.3;;;3.4;;
82805;SDS011;72558;51.000;-3.112;2024-01-30T06:39:33;15.9;;;3.1;;
82805;SDS011;72558;51.000;-3.112;2024-01-30T06:42:34;14.0;;;2.9;;
82805;SDS011;72558;51.000;-3.112;2024-01-30T06:45:34;15.0;;;2.5;;
82805;SDS011;72558;51.000;-3.112;2024-01-30T06:48:33;14.1;;;1.9;;
82805;SDS011;72558;51.000;-3.112;2024-01-30T06:51:34;14.3;;;2.4;;
82805;SDS011;72558;51.000;-3.112;2024-01-30T06:54:34;11.4;;;2.0;;
82805;SDS011;72558;51.000;-3.112;2024-01-30T06:57:33;10.8;;;2.1;;
82805;SDS011;72558;51.000;-3.112;2024-01-30T07:00:34;15.9;;;2.7;;
82805;SDS011;72558;51.000;-3.112;2024-01-30T07:03:33;12.9;;;2.2;;
82805;SDS011;72558;51.000;-3.112;2024-01-30T07:06:34;13.7;;;2.9;;
82805;SDS011;72558;51.000;-3.112;2024-01-30T07:09:34;14.2;;;2.6;;
82805;SDS011;72558;51.000;-3.112;2024-01-30T07:12:33;12.5;;;2.4;;
82805;SDS011;72558;51.000;-3.112;2024-01-30T07:15:34;10.8;;;2.4;;
82805;SDS011;72558;51.000;-3.112;2024-01-30T07:18:34;13.3;;;2.2;;
82805;SDS011;72558;51.000;-3.112;2024-01-30T07:21:34;10.5;;;1.8;;
82805;SDS011;72558;51.000;-3.112;2024-01-30T07:24:33;15.8;;;2.0;;
82805;SDS011;72558;51.000;-3.112;2024-01-30T07:27:34;10.0;;;1.5;;
82805;SDS011;72558;51.000;-3.112;2024-01-30T07:30:34;12.0;;;2.0;;
82805;SDS011;72558;51.000;-3.112;2024-01-30T07:33:33;15.9;;;1.9;;
82805;SDS011;72558;51.000;-3.112;2024-01-30T07:36:34;12.0;;;2.0;;
82805;SDS011;72558;51.000;-3.112;2024-01-30T07:39:34;13.8;;;2.0;;
82805;SDS011;72558;51.000;-3.112;2024-01-30T07:42:33;14.1;;;1.8;;
82805;SDS011;72558;51.000;-3.112;2024-01-30T07:45:34;13.5;;;2.1;;
82805;SDS011;72558;51.000;-3.112;2024-01-30T07:48:34;12.9;;;1.6;;
82805;SDS011;72558;51.000;-3.112;2024-01-30T07:51:34;14.5;;;2.4;;
82805;SDS011;72558;51.000;-3.112;2024-01-30T07:54:34;15.1;;;2.0;;
82805;SDS011;72558;51.000;-3.112;2024-01-30T07:57:34;12.4;;;2.0;;
82805;SDS011;72558;51.000;-3.112;2024-01-30T08:00:34;10.2;;;1.8;;
82805;SDS011;72558;51.000;-3.112;2024-01-30T08:03:33;11.8;;;1.7;;
82805;SDS011;72558;51.000;-3.112;2024-01-30T08:06:33;14.7;;;2.0;;
82805;SDS011;72558;51.000;-3.112;2024-01-30T08:09:34;12.5;;;1.9;;
82805;SDS011;72558;51.000;-3.112;2024-01-30T08:12:34;14.4;;;1.8;;
82805;SDS011;72558;51.000;-3.112;2024-01-30T08:15:33;12.0;;;1.6;;
82805;SDS011;72558;51.000;-3.112;2024-01-30T08:18:34;11.6;;;1.6;;
82805;SDS011;72558;51.000;-3.112;2024-01-30T08:21:34;12.2;;;1.6;;
82805;SDS011;72558;51.000;-3.112;2024-01-30T08:24:33;11.6;;;1.8;;
82805;SDS011;72558;51.000;-3.112;2024-01-30T08:27:34;10.5;;;1.6;;
82805;SDS011;72558;51.000;-3.112;2024-01-30T08:30:34;15.1;;;2.0;;
82805;SDS011;72558;51.000;-3.112;2024-01-30T08:33:34;13.9;;;2.2;;
82805;SDS011;72558;51.000;-3.112;2024-01-30T08:36:34;12.2;;;1.7;;
82805;SDS011;72558;51.000;-3.112;2024-01-30T08:39:34;11.7;;;2.0;;
82805;SDS011;72558;51.000;-3.112;2024-01-30T08:42:34;14.0;;;2.1;;
82805;SDS011;72558;51.000;-3.112;2024-01-30T08:45:33;13.0;;;1.7;;
82805;SDS011;72558;51.000;-3.112;2024-01-30T08:48:34;13.1;;;1.9;;
82805;SDS011;72558;51.000;-3.112;2024-01-30T08:51:33;14.8;;;2.2;;
82805;SDS011;72558;51.000;-3.112;2024-01-30T08:54:34;12.2;;;2.0;;
82805;SDS011;72558;51.000;-3.112;2024-01-30T08:57:33;11.0;;;1.7;;
82805;SDS011;72558;51.000;-3.112;2024-01-30T09:00:34;13.7;;;2.4;;
82805;SDS011;72558;51.000;-3.112;2024-01-30T09:03:33;11.0;;;1.9;;
82805;SDS011;72558;51.000;-3.112;2024-01-30T09:06:34;12.9;;;1.7;;
82805;SDS011;72558;51.000;-3.112;2024-01-30T09:09:34;11.6;;;1.6;;
82805;SDS011;72558;51.000;-3.112;2024-01-30T09:12:33;9.3;;;1.6;;
82805;SDS011;72558;51.000;-3.112;2024-01-30T09:15:34;11.4;;;2.0;;
82805;SDS011;72558;51.000;-3.112;2024-01-30T09:18:33;11.0;;;1.5;;
82805;SDS011;72558;51.000;-3.112;2024-01-30T09:21:34;13.3;;;2.2;;
82805;SDS011;72558;51.000;-3.112;2024-01-30T09:24:34;11.7;;;2.2;;
82805;SDS011;72558;51.000;-3.112;2024-01-30T09:27:33;10.7;;;1.6;;
82805;SDS011;72558;51.000;-3.112;2024-01-30T09:30:34;10.7;;;1.6;;
82805;SDS011;72558;51.000;-3.112;2024-01-30T09:33:34;13.7;;;1.8;;
82805;SDS011;72558;51.000;-3.112;2024-01-30T09:36:33;13.7;;;1.6;;
82805;SDS011;72558;51.000;-3.112;2024-01-30T09:39:34;11.9;;;2.1;;
82805;SDS011;72558;51.000;-3.112;2024-01-30T09:42:33;11.4;;;1.9;;
82805;SDS011;72558;51.000;-3.112;2024-01-30T09:45:33;13.2;;;1.8;;
82805;SDS011;72558;51.000;-3.112;2024-01-30T09:48:34;14.1;;;2.0;;
82805;SDS011;72558;51.000;-3.112;2024-01-30T09:51:33;13.6;;;1.7;;
82805;SDS011;72558;51.000;-3.112;2024-01-30T09:54:33;12.1;;;1.8;;
82805;SDS011;72558;51.000;-3.112;2024-01-30T09:57:34;11.1;;;2.2;;
82805;SDS011;72558;51.000;-3.112;2024-01-30T10:00:34;12.4;;;2.0;;
82805;SDS011;72558;51.000;-3.112;2024-01-30T10:03:33;13.1;;;1.8;;
82805;SDS011;72558;51.000;-3.112;2024-01-30T10:06:34;10.7;;;1.7;;
82805;SDS011;72558;51.000;-3.112;2024-01-30T10:09:34;11.2;;;1.7;;
82805;SDS011;72558;51.000;-3.112;2024-01-30T10:12:34;10.7;;;1.4;;
82805;SDS011;72558;51.000;-3.112;2024-01-30T10:15:34;10.9;;;1.5;;
82805;SDS011;72558;51.000;-3.112;2024-01-30T10:18:33;14.1;;;2.4;;
82805;SDS011;72558;51.000;-3.112;2024-01-30T10:21:34;11.5;;;2.1;;
82805;SDS011;72558;51.000;-3.112;2024-01-30T10:24:34;11.5;;;1.7;;
82805;SDS011;72558;51.000;-3.112;2024-01-30T10:27:33;11.3;;;1.6;;
82805;SDS011;72558;51.000;-3.112;2024-01-30T10:30:34;13.0;;;2.0;;
82805;SDS011;72558;51.000;-3.112;2024-01-30T10:33:34;11.8;;;2.1;;
82805;SDS011;72558;51.000;-3.112;2024-01-30T10:36:34;12.6;;;1.7;;
82805;SDS011;72558;51.000;-3.112;2024-01-30T10:39:34;11.5;;;1.7;;
82805;SDS011;72558;51.000;-3.112;2024-01-30T10:42:33;10.5;;;1.7;;
82805;SDS011;72558;51.000;-3.112;2024-01-30T10:45:34;11.5;;;2.0;;
82805;SDS011;72558;51.000;-3.112;2024-01-30T10:48:34;13.1;;;1.8;;
82805;SDS011;72558;51.000;-3.112;2024-01-30T10:51:34;12.6;;;1.7;;
82805;SDS011;72558;51.000;-3.112;2024-01-30T10:54:33;13.6;;;1.9;;
82805;SDS011;72558;51.000;-3.112;2024-01-30T10:57:34;12.4;;;2.2;;
82805;SDS011;72558;51.000;-3.112;2024-01-30T11:00:33;13.0;;;2.3;;
82805;SDS011;72558;51.000;-3.112;2024-01-30T11:03:33;11.7;;;1.7;;
82805;SDS011;72558;51.000;-3.112;2024-01-30T11:06:33;8.5;;;1.4;;
82805;SDS011;72558;51.000;-3.112;2024-01-30T11:09:33;12.2;;;1.7;;
82805;SDS011;72558;51.000;-3.112;2024-01-30T11:12:33;11.9;;;1.9;;
82805;SDS011;72558;51.000;-3.112;2024-01-30T11:15:34;11.4;;;1.3;;
82805;SDS011;72558;51.000;-3.112;2024-01-30T11:18:34;10.9;;;1.2;;
82805;SDS011;72558;51.000;-3.112;2024-01-30T11:21:33;8.0;;;1.1;;
82805;SDS011;72558;51.000;-3.112;2024-01-30T11:24:34;9.7;;;1.5;;
82805;SDS011;72558;51.000;-3.112;2024-01-30T11:27:34;8.9;;;1.1;;
82805;SDS011;72558;51.000;-3.112;2024-01-30T11:30:34;8.9;;;1.5;;
82805;SDS011;72558;51.000;-3.112;2024-01-30T11:33:34;6.6;;;1.3;;
82805;SDS011;72558;51.000;-3.112;2024-01-30T11:36:34;13.1;;;1.5;;
82805;SDS011;72558;51.000;-3.112;2024-01-30T11:39:34;11.4;;;1.3;;
82805;SDS011;72558;51.000;-3.112;2024-01-30T11:42:33;9.1;;;1.3;;
82805;SDS011;72558;51.000;-3.112;2024-01-30T11:45:34;10.0;;;1.2;;
82805;SDS011;72558;51.000;-3.112;2024-01-30T11:48:34;12.0;;;2.2;;
82805;SDS011;72558;51.000;-3.112;2024-01-30T11:51:34;9.3;;;1.2;;
82805;SDS011;72558;51.000;-3.112;2024-01-30T11:54:33;8.9;;;0.9;;
82805;SDS011;72558;51.000;-3.112;2024-01-30T11:57:34;11.6;;;1.4;;
82805;SDS011;72558;51.000;-3.112;2024-01-30T12:00:34;9.7;;;1.0;;
82805;SDS011;72558;51.000;-3.112;2024-01-30T12:03:34;9.4;;;1.2;;
82805;SDS011;72558;51.000;-3.112;2024-01-30T12:06:34;10.4;;;1.5;;
82805;SDS011;72558;51.000;-3.112;2024-01-30T12:09:34;8.8;;;1.4;;
82805;SDS011;72558;51.000;-3.112;2024-01-30T12:12:34;9.0;;;1.7;;
82805;SDS011;72558;51.000;-3.112;2024-01-30T12:15:34;10.2;;;1.3;;
82805;SDS011;72558;51.000;-3.112;2024-01-30T12:18:33;12.4;;;1.6;;
82805;SDS011;72558;51.000;-3.112;2024-01-30T12:21:33;8.0;;;1.4;;
82805;SDS011;72558;51.000;-3.112;2024-01-30T12:24:33;11.3;;;1.3;;
82805;SDS011;72558;51.000;-3.112;2024-01-30T12:27:34;8.6;;;1.3;;
82805;SDS011;72558;51.000;-3.112;2024-01-30T12:30:33;10.9;;;1.4;;
82805;SDS011;72558;51.000;-3.112;2024-01-30T12:33:33;7.9;;;1.5;;
82805;SDS011;72558;51.000;-3.112;2024-01-30T12:36:34;10.6;;;1.4;;
82805;SDS011;72558;51.000;-3.112;2024-01-30T12:39:34;6.5;;;1.2;;
82805;SDS011;72558;51.000;-3.112;2024-01-30T12:42:33;8.9;;;1.5;;
82805;SDS011;72558;51.000;-3.112;2024-01-30T12:45:33;12.3;;;2.0;;
82805;SDS011;72558;51.000;-3.112;2024-01-30T12:48:33;9.6;;;1.5;;
82805;SDS011;72558;51.000;-3.112;2024-01-30T12:51:34;9.4;;;1.5;;
82805;SDS011;72558;51.000;-3.112;2024-01-30T12:54:34;9.5;;;1.4;;
82805;SDS011;72558;51.000;-3.112;2024-01-30T12:57:33;5.9;;;1.1;;
82805;SDS011;72558;51.000;-3.112;2024-01-30T13:00:34;6.4;;;1.5;;
82805;SDS011;72558;51.000;-3.112;2024-01-30T13:03:33;9.1;;;1.4;;
82805;SDS011;72558;51.000;-3.112;2024-01-30T13:06:34;8.2;;;1.9;;
82805;SDS011;72558;51.000;-3.112;2024-01-30T13:09:34;9.0;;;2.2;;
82805;SDS011;72558;51.000;-3.112;2024-01-30T13:12:34;9.1;;;2.2;;
82805;SDS011;72558;51.000;-3.112;2024-01-30T13:15:34;7.2;;;1.4;;
82805;SDS011;72558;51.000;-3.112;2024-01-30T13:18:34;9.7;;;1.8;;
82805;SDS011;72558;51.000;-3.112;2024-01-30T13:21:34;8.7;;;1.2;;
82805;SDS011;72558;51.000;-3.112;2024-01-30T13:24:33;7.7;;;1.4;;
82805;SDS011;72558;51.000;-3.112;2024-01-30T13:27:34;5.1;;;1.0;;
82805;SDS011;72558;51.000;-3.112;2024-01-30T13:30:33;7.9;;;1.3;;
82805;SDS011;72558;51.000;-3.112;2024-01-30T13:33:34;6.2;;;1.2;;
82805;SDS011;72558;51.000;-3.112;2024-01-30T13:36:33;5.9;;;1.4;;
82805;SDS011;72558;51.000;-3.112;2024-01-30T13:39:34;8.6;;;1.0;;
82805;SDS011;72558;51.000;-3.112;2024-01-30T13:42:33;7.5;;;1.2;;
82805;SDS011;72558;51.000;-3.112;2024-01-30T13:45:34;6.7;;;1.0;;
82805;SDS011;72558;51.000;-3.112;2024-01-30T13:48:33;7.4;;;1.5;;
82805;SDS011;72558;51.000;-3.112;2024-01-30T13:51:34;7.0;;;1.4;;
82805;SDS011;72558;51.000;-3.112;2024-01-30T13:54:33;7.1;;;1.2;;
82805;SDS011;72558;51.000;-3.112;2024-01-30T13:57:34;9.3;;;1.4;;
82805;SDS011;72558;51.000;-3.112;2024-01-30T14:00:34;10.3;;;1.4;;
82805;SDS011;72558;51.000;-3.112;2024-01-30T14:03:33;9.2;;;2.0;;
82805;SDS011;72558;51.000;-3.112;2024-01-30T14:06:34;8.3;;;2.0;;
82805;SDS011;72558;51.000;-3.112;2024-01-30T14:09:34;7.7;;;2.0;;
82805;SDS011;72558;51.000;-3.112;2024-01-30T14:12:34;8.2;;;2.0;;
82805;SDS011;72558;51.000;-3.112;2024-01-30T14:15:34;11.5;;;2.1;;
82805;SDS011;72558;51.000;-3.112;2024-01-30T14:18:34;7.8;;;2.1;;
82805;SDS011;72558;51.000;-3.112;2024-01-30T14:21:35;8.7;;;1.8;;
82805;SDS011;72558;51.000;-3.112;2024-01-30T14:24:34;10.3;;;2.0;;
82805;SDS011;72558;51.000;-3.112;2024-01-30T14:27:34;8.0;;;2.1;;
82805;SDS011;72558;51.000;-3.112;2024-01-30T14:30:33;8.8;;;1.6;;
82805;SDS011;72558;51.000;-3.112;2024-01-30T14:33:34;9.3;;;1.8;;
82805;SDS011;72558;51.000;-3.112;2024-01-30T14:36:34;6.6;;;1.7;;
82805;SDS011;72558;51.000;-3.112;2024-01-30T14:39:34;7.2;;;1.8;;
82805;SDS011;72558;51.000;-3.112;2024-01-30T14:42:34;7.8;;;1.7;;
82805;SDS011;72558;51.000;-3.112;2024-01-30T14:45:34;8.2;;;1.8;;
82805;SDS011;72558;51.000;-3.112;2024-01-30T14:48:34;6.6;;;1.1;;
82805;SDS011;72558;51.000;-3.112;2024-01-30T14:51:34;6.9;;;1.1;;
82805;SDS011;72558;51.000;-3.112;2024-01-30T14:54:34;7.0;;;1.1;;
82805;SDS011;72558;51.000;-3.112;2024-01-30T14:57:33;7.7;;;1.0;;
82805;SDS011;72558;51.000;-3.112;2024-01-30T15:00:34;6.9;;;1.1;;
82805;SDS011;72558;51.000;-3.112;2024-01-30T15:03:33;8.2;;;1.3;;
82805;SDS011;72558;51.000;-3.112;2024-01-30T15:06:34;9.2;;;1.3;;
82805;SDS011;72558;51.000;-3.112;2024-01-30T15:09:34;6.3;;;1.0;;
82805;SDS011;72558;51.000;-3.112;2024-01-30T15:12:33;11.4;;;1.9;;
82805;SDS011;72558;51.000;-3.112;2024-01-30T15:15:34;8.1;;;1.3;;
82805;SDS011;72558;51.000;-3.112;2024-01-30T15:18:34;8.5;;;1.7;;
82805;SDS011;72558;51.000;-3.112;2024-01-30T15:21:33;6.6;;;1.1;;
82805;SDS011;72558;51.000;-3.112;2024-01-30T15:24:34;6.2;;;1.0;;
82805;SDS011;72558;51.000;-3.112;2024-01-30T15:27:33;6.7;;;1.2;;
82805;SDS011;72558;51.000;-3.112;2024-01-30T15:30:34;5.1;;;1.0;;
82805;SDS011;72558;51.000;-3.112;2024-01-30T15:33:33;6.8;;;1.0;;
82805;SDS011;72558;51.000;-3.112;2024-01-30T15:36:34;9.2;;;1.0;;
82805;SDS011;72558;51.000;-3.112;2024-01-30T15:39:34;6.8;;;1.0;;
82805;SDS011;72558;51.000;-3.112;2024-01-30T15:42:34;8.0;;;1.1;;
82805;SDS011;72558;51.000;-3.112;2024-01-30T15:45:34;7.3;;;0.9;;
82805;SDS011;72558;51.000;-3.112;2024-01-30T15:48:34;8.2;;;1.0;;
82805;SDS011;72558;51.000;-3.112;2024-01-30T15:51:34;7.6;;;1.3;;
82805;SDS011;72558;51.000;-3.112;2024-01-30T15:54:34;5.9;;;1.2;;
82805;SDS011;72558;51.000;-3.112;2024-01-30T15:57:34;10.1;;;1.3;;
82805;SDS011;72558;51.000;-3.112;2024-01-30T16:00:33;7.7;;;1.2;;
82805;SDS011;72558;51.000;-3.112;2024-01-30T16:03:34;5.3;;;0.9;;
82805;SDS011;72558;51.000;-3.112;2024-01-30T16:06:34;9.6;;;1.2;;
82805;SDS011;72558;51.000;-3.112;2024-01-30T16:09:33;8.8;;;1.1;;
82805;SDS011;72558;51.000;-3.112;2024-01-30T16:12:34;6.0;;;1.2;;
82805;SDS011;72558;51.000;-3.112;2024-01-30T16:15:33;5.5;;;1.1;;
82805;SDS011;72558;51.000;-3.112;2024-01-30T16:18:34;6.7;;;1.3;;
82805;SDS011;72558;51.000;-3.112;2024-01-30T16:21:34;9.2;;;2.5;;
82805;SDS011;72558;51.000;-3.112;2024-01-30T16:24:34;10.6;;;2.7;;
82805;SDS011;72558;51.000;-3.112;2024-01-30T16:27:34;9.8;;;2.4;;
82805;SDS011;72558;51.000;-3.112;2024-01-30T16:30:34;8.9;;;2.1;;
82805;SDS011;72558;51.000;-3.112;2024-01-30T16:33:34;9.0;;;2.2;;
82805;SDS011;72558;51.000;-3.112;2024-01-30T16:36:33;8.0;;;1.8;;
82805;SDS011;72558;51.000;-3.112;2024-01-30T16:39:34;12.4;;;2.6;;
82805;SDS011;72558;51.000;-3.112;2024-01-30T16:42:34;9.9;;;2.3;;
82805;SDS011;72558;51.000;-3.112;2024-01-30T16:45:34;7.7;;;2.0;;
82805;SDS011;72558;51.000;-3.112;2024-01-30T16:48:34;9.4;;;2.0;;
82805;SDS011;72558;51.000;-3.112;2024-01-30T16:51:34;10.7;;;2.0;;
82805;SDS011;72558;51.000;-3.112;2024-01-30T16:54:33;9.2;;;1.7;;
82805;SDS011;72558;51.000;-3.112;2024-01-30T16:57:34;11.4;;;2.1;;
82805;SDS011;72558;51.000;-3.112;2024-01-30T17:00:34;11.0;;;2.4;;
82805;SDS011;72558;51.000;-3.112;2024-01-30T17:03:34;12.4;;;2.8;;
82805;SDS011;72558;51.000;-3.112;2024-01-30T17:06:34;9.6;;;2.5;;
82805;SDS011;72558;51.000;-3.112;2024-01-30T17:09:33;12.5;;;3.9;;
82805;SDS011;72558;51.000;-3.112;2024-01-30T17:12:34;16.9;;;5.2;;
82805;SDS011;72558;51.000;-3.112;2024-01-30T17:15:33;18.8;;;5.9;;
82805;SDS011;72558;51.000;-3.112;2024-01-30T17:18:34;19.2;;;5.1;;
82805;SDS011;72558;51.000;-3.112;2024-01-30T17:21:34;14.6;;;3.5;;
82805;SDS011;72558;51.000;-3.112;2024-01-30T17:24:34;13.0;;;3.4;;
82805;SDS011;72558;51.000;-3.112;2024-01-30T17:27:34;15.3;;;3.4;;
82805;SDS011;72558;51.000;-3.112;2024-01-30T17:30:33;11.9;;;3.9;;
82805;SDS011;72558;51.000;-3.112;2024-01-30T17:42:34;12.6;;;4.4;;
82805;SDS011;72558;51.000;-3.112;2024-01-30T17:45:34;15.4;;;5.7;;
82805;SDS011;72558;51.000;-3.112;2024-01-30T17:48:33;17.6;;;6.6;;
82805;SDS011;72558;51.000;-3.112;2024-01-30T17:51:34;21.4;;;9.1;;
82805;SDS011;72558;51.000;-3.112;2024-01-30T17:54:34;21.1;;;9.6;;
82805;SDS011;72558;51.000;-3.112;2024-01-30T17:57:34;21.5;;;9.8;;
82805;SDS011;72558;51.000;-3.112;2024-01-30T18:00:34;21.5;;;10.4;;
82805;SDS011;72558;51.000;-3.112;2024-01-30T18:03:34;22.0;;;10.0;;
82805;SDS011;72558;51.000;-3.112;2024-01-30T18:06:33;21.7;;;10.1;;
82805;SDS011;72558;51.000;-3.112;2024-01-30T18:09:34;21.2;;;10.3;;
82805;SDS011;72558;51.000;-3.112;2024-01-30T18:12:33;20.9;;;9.9;;
82805;SDS011;72558;51.000;-3.112;2024-01-30T18:15:34;20.1;;;10.0;;
82805;SDS011;72558;51.000;-3.112;2024-01-30T18:18:34;21.3;;;10.3;;
82805;SDS011;72558;51.000;-3.112;2024-01-30T18:21:33;23.7;;;9.6;;